Time;durP1;ratioP1;P1;durP2;ratioP2;P2;SDS_P1;SDS_P2;PMS_P1;PMS_P2;Temp;Humidity;BMP_temperature;BMP_pressure;BME280_temperature;BME280_humidity;BME280_pressure;Samples;Min_cycle;Max_cycle;Signal;HPM_P1;HPM_P2
2023/11/03 00:00:44;;;;;;;1.63;0.90;;;22.60;97.00;;;;;;5030261;28;20957;-69
2023/11/03 00:03:12;;;;;;;1.73;0.93;;;22.50;97.00;;;;;;5028400;28;20861;-70
2023/11/03 00:05:39;;;;;;;1.70;1.00;;;22.50;97.00;;;;;;5032198;28;20457;-68
2023/11/03 00:08:06;;;;;;;6.00;1.20;;;22.50;97.10;;;;;;5026791;28;20486;-70
2023/11/03 00:10:32;;;;;;;2.43;1.10;;;22.50;97.10;;;;;;5030312;28;20489;-70
2023/11/03 00:13:02;;;;;;;1.73;1.10;;;22.50;97.10;;;;;;5028696;28;20513;-71
2023/11/03 00:15:29;;;;;;;2.73;1.33;;;22.50;97.20;;;;;;5033463;28;21020;-74
2023/11/03 00:17:56;;;;;;;2.53;1.03;;;22.50;97.50;;;;;;5030396;28;20457;-69
2023/11/03 00:20:24;;;;;;;3.00;1.37;;;22.40;97.20;;;;;;5030887;28;20456;-72
2023/11/03 00:22:51;;;;;;;1.70;1.20;;;22.40;97.30;;;;;;5028892;28;20461;-73
2023/11/03 00:25:18;;;;;;;1.90;1.20;;;22.40;97.30;;;;;;5030028;28;20466;-76
2023/11/03 00:27:46;;;;;;;4.23;1.10;;;22.40;97.40;;;;;;5029274;28;20854;-75
2023/11/03 00:30:13;;;;;;;7.73;1.30;;;22.40;97.40;;;;;;5028101;28;22561;-73
2023/11/03 00:32:40;;;;;;;2.80;1.00;;;22.40;97.50;;;;;;5031342;28;20630;-71
2023/11/03 00:35:08;;;;;;;2.37;1.03;;;22.40;97.50;;;;;;5031558;28;20465;-73
2023/11/03 00:37:36;;;;;;;2.43;1.40;;;22.30;97.40;;;;;;5029798;28;20494;-73
2023/11/03 00:40:04;;;;;;;1.60;1.00;;;22.30;97.40;;;;;;5024406;28;20501;-70
2023/11/03 00:42:31;;;;;;;3.33;1.33;;;22.30;97.50;;;;;;5027902;28;20466;-74
2023/11/03 00:44:57;;;;;;;2.03;1.00;;;22.30;97.50;;;;;;5030380;28;20470;-70
2023/11/03 00:47:24;;;;;;;4.27;1.37;;;22.30;97.50;;;;;;5030846;28;20496;-70
2023/11/03 00:49:52;;;;;;;1.70;1.40;;;22.30;97.60;;;;;;5033466;28;20465;-76
2023/11/03 00:52:19;;;;;;;2.30;1.47;;;22.30;97.60;;;;;;5030164;28;20545;-75
2023/11/03 00:54:47;;;;;;;2.50;1.20;;;22.30;97.60;;;;;;5029242;28;20465;-71
2023/11/03 00:57:14;;;;;;;1.73;1.00;;;22.20;97.60;;;;;;5030970;28;20802;-72
2023/11/03 00:59:40;;;;;;;1.70;1.13;;;22.20;97.60;;;;;;5034019;28;20470;-74
2023/11/03 01:02:09;;;;;;;3.47;1.20;;;22.20;97.60;;;;;;5028829;28;20488;-68
2023/11/03 01:04:37;;;;;;;1.40;1.00;;;22.20;97.60;;;;;;5031101;28;20469;-74
2023/11/03 01:07:04;;;;;;;8.93;2.10;;;22.20;97.60;;;;;;5028619;28;20550;-75
2023/11/03 01:09:31;;;;;;;1.73;1.00;;;22.20;97.70;;;;;;5034859;28;20546;-76
2023/11/03 01:11:59;;;;;;;2.63;1.27;;;22.20;97.70;;;;;;5040467;28;20464;-74
2023/11/03 01:14:26;;;;;;;1.90;1.03;;;22.20;97.70;;;;;;5036036;28;20460;-68
2023/11/03 01:16:52;;;;;;;2.70;1.20;;;22.20;97.70;;;;;;5032371;28;21041;-75
2023/11/03 01:19:21;;;;;;;2.00;1.63;;;22.20;97.80;;;;;;5030104;28;21184;-76
2023/11/03 01:21:48;;;;;;;3.53;1.60;;;22.20;97.80;;;;;;5035023;28;20462;-74
2023/11/03 01:24:15;;;;;;;1.57;1.00;;;22.10;97.70;;;;;;5036173;28;20745;-73
2023/11/03 01:26:43;;;;;;;1.50;0.90;;;22.10;97.70;;;;;;5040350;28;20464;-67
2023/11/03 01:29:12;;;;;;;3.93;1.47;;;22.10;97.80;;;;;;5036063;28;20500;-71
2023/11/03 01:31:39;;;;;;;1.37;0.90;;;22.10;97.80;;;;;;5035911;28;20465;-76
2023/11/03 01:34:06;;;;;;;2.20;0.90;;;22.10;97.80;;;;;;5028383;28;20557;-72
2023/11/03 01:36:35;;;;;;;1.37;1.00;;;22.10;97.80;;;;;;5028268;28;20515;-74
2023/11/03 01:39:02;;;;;;;1.43;0.97;;;22.10;97.80;;;;;;5028181;28;20485;-72
2023/11/03 01:41:28;;;;;;;1.40;0.90;;;22.10;97.80;;;;;;5031611;28;20453;-73
2023/11/03 01:44:05;;;;;;;1.73;0.80;;;22.00;97.80;;;;;;5041053;28;20453;-72
2023/11/03 01:46:34;;;;;;;1.90;1.20;;;22.00;97.80;;;;;;5037101;28;20553;-74
2023/11/03 01:49:01;;;;;;;2.13;1.43;;;22.00;97.90;;;;;;5029745;28;20501;-72
2023/11/03 01:51:28;;;;;;;1.83;0.87;;;22.00;97.90;;;;;;5029040;28;20535;-72
2023/11/03 01:53:55;;;;;;;1.50;1.07;;;22.00;97.90;;;;;;5028589;28;20453;-71
2023/11/03 01:56:24;;;;;;;1.40;1.30;;;22.00;97.90;;;;;;5029177;28;20533;-70
2023/11/03 01:58:51;;;;;;;1.40;0.87;;;22.00;97.90;;;;;;5028498;28;20468;-73
2023/11/03 02:01:18;;;;;;;2.60;0.80;;;22.00;97.90;;;;;;5028166;28;20877;-75
2023/11/03 02:03:47;;;;;;;1.40;0.80;;;21.90;97.90;;;;;;5040386;28;20489;-75
2023/11/03 02:06:14;;;;;;;1.40;0.97;;;22.00;97.90;;;;;;5039158;28;20449;-71
2023/11/03 02:08:41;;;;;;;2.07;1.00;;;21.90;97.90;;;;;;5037103;28;20988;-69
2023/11/03 02:11:07;;;;;;;1.37;0.90;;;21.90;97.90;;;;;;5040723;28;20475;-68
2023/11/03 02:13:35;;;;;;;2.17;0.87;;;21.90;97.90;;;;;;5040196;28;20457;-74
2023/11/03 02:16:02;;;;;;;1.43;0.90;;;21.90;97.90;;;;;;5038705;28;20468;-69
2023/11/03 02:18:30;;;;;;;1.90;0.90;;;21.90;98.00;;;;;;5040519;28;20453;-71
2023/11/03 02:20:58;;;;;;;2.63;1.07;;;21.90;98.00;;;;;;5038504;28;20184;-69
2023/11/03 02:23:26;;;;;;;1.67;1.20;;;21.90;98.00;;;;;;5036046;28;20549;-76
2023/11/03 02:25:53;;;;;;;1.30;0.80;;;21.80;98.00;;;;;;5034656;28;20457;-69
2023/11/03 02:28:21;;;;;;;1.27;0.80;;;21.80;98.00;;;;;;5035329;28;20953;-77
2023/11/03 02:30:48;;;;;;;1.23;0.90;;;21.80;98.00;;;;;;5036775;28;20515;-72
2023/11/03 02:33:17;;;;;;;1.60;1.10;;;21.80;98.10;;;;;;5035733;28;20472;-72
2023/11/03 02:35:46;;;;;;;1.47;0.87;;;21.80;98.10;;;;;;5035393;28;20802;-70
2023/11/03 02:38:16;;;;;;;1.10;0.70;;;21.80;98.10;;;;;;5033285;28;20544;-73
2023/11/03 02:40:44;;;;;;;1.13;0.90;;;21.80;98.10;;;;;;5036625;28;20783;-69
2023/11/03 02:43:11;;;;;;;2.30;0.80;;;21.80;98.10;;;;;;5033342;28;20819;-74
2023/11/03 02:45:37;;;;;;;1.53;0.73;;;21.80;98.10;;;;;;5034745;28;20460;-74
2023/11/03 02:48:04;;;;;;;1.17;0.70;;;21.70;98.10;;;;;;5031381;28;20464;-71
2023/11/03 02:50:31;;;;;;;1.30;1.03;;;21.70;98.10;;;;;;5034613;28;20465;-71
2023/11/03 02:52:57;;;;;;;1.40;0.87;;;21.70;98.20;;;;;;5029605;28;20806;-68
2023/11/03 02:55:24;;;;;;;1.30;0.90;;;21.70;98.20;;;;;;5030125;28;20473;-69
2023/11/03 02:57:52;;;;;;;1.27;0.80;;;21.70;98.20;;;;;;5035199;28;20464;-73
2023/11/03 03:00:19;;;;;;;1.10;0.80;;;21.70;98.20;;;;;;5037365;28;20457;-72
2023/11/03 03:02:47;;;;;;;1.13;0.97;;;21.70;98.20;;;;;;5029496;28;20662;-71
2023/11/03 03:05:13;;;;;;;1.37;0.93;;;21.70;98.20;;;;;;5031684;28;20515;-72
2023/11/03 03:07:45;;;;;;;2.73;0.80;;;21.70;98.20;;;;;;5031839;28;20817;-76
2023/11/03 03:10:12;;;;;;;2.60;1.00;;;21.60;98.20;;;;;;5033583;28;21261;-74
2023/11/03 03:12:41;;;;;;;1.50;0.93;;;21.60;98.20;;;;;;5034783;28;20458;-73
2023/11/03 03:15:10;;;;;;;1.30;1.13;;;21.60;98.20;;;;;;5030467;28;20566;-73
2023/11/03 03:17:37;;;;;;;1.63;0.87;;;21.60;98.20;;;;;;5034547;28;20457;-69
2023/11/03 03:20:04;;;;;;;1.03;0.70;;;21.60;98.20;;;;;;5032059;28;20461;-69
2023/11/03 03:22:31;;;;;;;1.40;1.10;;;21.60;98.30;;;;;;5032043;28;20467;-69
2023/11/03 03:24:58;;;;;;;1.63;1.10;;;21.60;98.30;;;;;;5032962;28;20474;-65
2023/11/03 03:27:24;;;;;;;1.60;0.90;;;21.60;98.30;;;;;;5037959;28;20948;-71
2023/11/03 03:29:52;;;;;;;1.77;0.90;;;21.60;98.30;;;;;;5032433;28;20495;-69
2023/11/03 03:32:20;;;;;;;1.50;0.80;;;21.60;98.30;;;;;;5028625;28;21196;-67
2023/11/03 03:34:47;;;;;;;1.43;0.80;;;21.50;98.30;;;;;;5029968;28;20457;-69
2023/11/03 03:37:14;;;;;;;1.23;0.80;;;21.50;98.30;;;;;;5032022;28;20461;-73
2023/11/03 03:39:40;;;;;;;1.80;0.90;;;21.50;98.30;;;;;;5031690;28;20463;-74
2023/11/03 03:42:07;;;;;;;1.00;0.83;;;21.50;98.30;;;;;;5029587;28;20511;-73
2023/11/03 03:44:38;;;;;;;1.20;0.80;;;21.50;98.40;;;;;;5032768;28;20466;-71
2023/11/03 03:47:05;;;;;;;1.20;0.80;;;21.50;98.40;;;;;;5028746;28;20989;-71
2023/11/03 03:49:33;;;;;;;1.00;0.70;;;21.50;98.40;;;;;;5025407;28;20489;-70
2023/11/03 03:52:00;;;;;;;1.50;1.20;;;21.50;98.40;;;;;;5030668;28;20815;-76
2023/11/03 03:54:27;;;;;;;1.20;0.70;;;21.50;98.50;;;;;;5033807;28;20739;-73
2023/11/03 03:56:54;;;;;;;1.27;0.90;;;21.40;98.40;;;;;;5027444;28;20998;-70
2023/11/03 03:59:20;;;;;;;1.20;0.83;;;21.40;98.40;;;;;;5032042;28;20458;-69
2023/11/03 04:01:47;;;;;;;1.40;0.80;;;21.40;98.40;;;;;;5029447;28;20986;-70
2023/11/03 04:04:14;;;;;;;1.80;0.80;;;21.40;98.40;;;;;;5029570;28;20473;-69
2023/11/03 04:06:44;;;;;;;1.47;0.90;;;21.40;98.40;;;;;;5030779;28;20469;-71
2023/11/03 04:09:11;;;;;;;1.83;0.80;;;21.40;98.40;;;;;;5027543;28;20476;-68
2023/11/03 04:11:38;;;;;;;1.57;0.80;;;21.40;98.40;;;;;;5036991;28;20469;-76
2023/11/03 04:14:05;;;;;;;2.27;0.80;;;21.40;98.40;;;;;;5031428;28;20475;-75
2023/11/03 04:16:35;;;;;;;1.07;0.70;;;21.40;98.50;;;;;;5022578;28;20882;-67
2023/11/03 04:19:02;;;;;;;1.67;1.00;;;21.40;98.40;;;;;;5020964;28;20450;-70
2023/11/03 04:21:29;;;;;;;1.33;0.80;;;21.40;98.50;;;;;;5024662;28;20454;-71
2023/11/03 04:23:57;;;;;;;1.43;0.80;;;21.40;98.50;;;;;;5024290;28;20466;-73
2023/11/03 04:26:24;;;;;;;4.25;0.90;;;21.40;98.60;;;;;;5022513;28;20857;-68
2023/11/03 04:28:51;;;;;;;2.07;1.33;;;21.40;98.60;;;;;;5022799;28;20210;-70
2023/11/03 04:31:18;;;;;;;1.67;0.73;;;21.30;98.50;;;;;;5023285;28;20466;-74
2023/11/03 04:33:44;;;;;;;1.17;0.70;;;21.40;98.60;;;;;;5029324;28;20450;-73
2023/11/03 04:36:11;;;;;;;0.97;0.70;;;21.30;98.50;;;;;;5034745;28;20485;-72
2023/11/03 04:38:38;;;;;;;1.63;1.00;;;21.30;98.50;;;;;;5025489;28;20464;-75
2023/11/03 04:41:06;;;;;;;1.15;0.80;;;21.30;98.50;;;;;;5034457;28;20465;-75
2023/11/03 04:43:35;;;;;;;1.40;1.00;;;21.30;98.60;;;;;;5036079;28;20195;-69
2023/11/03 04:46:03;;;;;;;1.58;1.33;;;21.30;98.60;;;;;;5033115;28;20450;-72
2023/11/03 04:48:30;;;;;;;3.75;1.27;;;21.30;98.60;;;;;;5033277;28;20693;-72
2023/11/03 04:50:56;;;;;;;1.37;0.90;;;21.30;98.60;;;;;;5036609;28;20674;-74
2023/11/03 04:53:23;;;;;;;1.10;0.80;;;21.30;98.60;;;;;;5033280;28;20452;-70
2023/11/03 04:55:50;;;;;;;1.20;0.90;;;21.30;98.60;;;;;;5033179;28;20454;-69
2023/11/03 04:58:18;;;;;;;1.47;0.70;;;21.20;98.60;;;;;;5029144;28;20468;-72
2023/11/03 05:00:45;;;;;;;2.10;1.10;;;21.20;98.60;;;;;;5033727;28;20480;-70
2023/11/03 05:03:11;;;;;;;1.40;0.80;;;21.20;98.60;;;;;;5033314;28;20694;-68
2023/11/03 05:05:38;;;;;;;1.00;0.60;;;21.20;98.60;;;;;;5033291;28;20547;-70
2023/11/03 05:08:05;;;;;;;1.75;1.00;;;21.20;98.60;;;;;;5030736;28;20470;-72
2023/11/03 05:10:32;;;;;;;1.30;1.10;;;21.20;98.80;;;;;;5030425;28;20218;-74
2023/11/03 05:13:00;;;;;;;1.33;0.80;;;21.20;98.70;;;;;;5034482;28;20465;-72
2023/11/03 05:15:28;;;;;;;1.40;0.90;;;21.20;98.70;;;;;;5033245;28;20511;-70
2023/11/03 05:17:54;;;;;;;1.30;0.77;;;21.20;98.70;;;;;;5033124;28;20202;-74
2023/11/03 05:20:21;;;;;;;1.35;0.70;;;21.30;98.70;;;;;;5030594;28;20463;-68
2023/11/03 05:22:48;;;;;;;1.57;0.70;;;21.20;98.70;;;;;;5031314;28;20222;-72
2023/11/03 05:25:14;;;;;;;1.20;1.00;;;21.20;98.70;;;;;;5032184;28;20465;-72
2023/11/03 05:27:41;;;;;;;0.97;0.70;;;21.20;98.70;;;;;;5031194;28;20458;-76
2023/11/03 05:30:09;;;;;;;1.15;0.80;;;21.20;98.70;;;;;;5030666;28;20478;-73
2023/11/03 05:32:37;;;;;;;2.50;0.70;;;21.20;98.60;;;;;;5031372;28;20680;-75
2023/11/03 05:35:05;;;;;;;4.27;1.50;;;21.20;98.70;;;;;;5032113;28;20457;-70
2023/11/03 05:37:32;;;;;;;1.10;0.80;;;21.20;98.70;;;;;;5029277;28;20466;-72
2023/11/03 05:39:59;;;;;;;1.00;0.80;;;21.20;98.70;;;;;;5031107;28;20450;-76
2023/11/03 05:42:26;;;;;;;1.20;0.90;;;21.20;98.60;;;;;;5031379;28;20469;-74
2023/11/03 05:44:53;;;;;;;1.70;0.70;;;21.20;98.70;;;;;;5031711;28;20196;-73
2023/11/03 05:47:19;;;;;;;1.10;0.82;;;21.10;98.60;;;;;;5029823;28;20461;-72
2023/11/03 05:49:47;;;;;;;2.05;1.00;;;21.10;98.60;;;;;;5029572;28;20663;-71
2023/11/03 05:52:14;;;;;;;1.30;0.70;;;21.10;98.70;;;;;;5031675;28;20187;-70
2023/11/03 05:54:41;;;;;;;1.10;0.80;;;21.10;98.60;;;;;;5027314;28;20206;-73
2023/11/03 05:57:08;;;;;;;1.70;1.43;;;21.10;98.60;;;;;;5029196;28;20484;-76
2023/11/03 05:59:35;;;;;;;1.43;0.97;;;21.10;98.60;;;;;;5032363;28;20472;-72
2023/11/03 06:02:01;;;;;;;1.03;0.70;;;21.10;98.60;;;;;;5028523;28;20458;-66
2023/11/03 06:04:28;;;;;;;1.40;1.00;;;21.10;98.60;;;;;;5028529;28;20830;-69
2023/11/03 06:06:56;;;;;;;1.10;0.90;;;21.10;98.60;;;;;;5034768;28;20446;-76
2023/11/03 06:09:24;;;;;;;1.17;0.90;;;21.10;98.60;;;;;;5031392;28;20678;-75
2023/11/03 06:11:51;;;;;;;2.47;0.70;;;21.10;98.60;;;;;;5031707;28;20210;-73
2023/11/03 06:14:17;;;;;;;1.90;0.73;;;21.10;98.60;;;;;;5028231;28;20207;-75
2023/11/03 06:16:44;;;;;;;1.33;1.02;;;21.10;98.60;;;;;;5027740;28;20867;-70
2023/11/03 06:19:11;;;;;;;1.02;0.70;;;21.10;98.60;;;;;;5027528;28;20200;-73
2023/11/03 06:21:38;;;;;;;1.00;0.80;;;21.10;98.60;;;;;;5029400;28;20786;-72
2023/11/03 06:24:07;;;;;;;0.90;0.70;;;21.00;98.60;;;;;;5026776;28;20652;-74
2023/11/03 06:26:33;;;;;;;1.00;0.70;;;21.10;98.70;;;;;;5029719;28;20466;-71
2023/11/03 06:29:00;;;;;;;1.10;0.68;;;21.00;98.60;;;;;;5029960;28;20225;-71
2023/11/03 06:31:27;;;;;;;1.10;0.80;;;21.00;98.60;;;;;;5029421;28;20781;-75
2023/11/03 06:33:54;;;;;;;1.33;0.85;;;21.00;98.90;;;;;;5027595;28;20489;-75
2023/11/03 06:36:21;;;;;;;1.38;0.70;;;21.00;98.60;;;;;;5028182;28;20200;-73
2023/11/03 06:38:47;;;;;;;1.10;0.70;;;21.00;98.60;;;;;;5028116;28;20199;-69
2023/11/03 06:41:15;;;;;;;1.00;0.70;;;21.00;98.60;;;;;;5030165;28;20210;-72
2023/11/03 06:43:43;;;;;;;1.00;0.65;;;21.00;98.60;;;;;;5029875;28;20825;-76
2023/11/03 06:46:10;;;;;;;0.98;0.73;;;21.00;98.60;;;;;;5030020;28;20199;-67
2023/11/03 06:48:37;;;;;;;1.10;0.70;;;21.00;98.60;;;;;;5028784;28;20867;-75
2023/11/03 06:51:10;;;;;;;2.47;0.90;;;21.00;98.60;;;;;;5028008;28;20219;-76
2023/11/03 06:53:37;;;;;;;1.30;0.90;;;21.00;98.60;;;;;;5029786;28;20260;-72
2023/11/03 06:56:05;;;;;;;1.10;0.70;;;21.00;98.60;;;;;;5031223;28;20473;-75
2023/11/03 06:58:33;;;;;;;1.00;0.63;;;21.00;98.60;;;;;;5029803;28;20290;-73
2023/11/03 07:01:00;;;;;;;1.10;0.63;;;21.00;98.60;;;;;;5032197;28;20203;-69
2023/11/03 07:03:27;;;;;;;1.00;0.65;;;21.00;98.60;;;;;;5032907;28;20465;-68
2023/11/03 07:05:53;;;;;;;1.10;0.80;;;20.90;98.60;;;;;;5031058;28;20576;-71
2023/11/03 07:08:20;;;;;;;1.23;0.70;;;21.00;98.60;;;;;;5024178;28;20463;-72
2023/11/03 07:10:48;;;;;;;1.20;0.75;;;20.90;98.60;;;;;;5035229;28;20219;-70
2023/11/03 07:13:15;;;;;;;0.90;0.70;;;21.00;98.60;;;;;;5033370;28;20686;-69
2023/11/03 07:15:43;;;;;;;1.27;0.83;;;21.00;98.70;;;;;;5034873;28;20719;-77
2023/11/03 07:18:11;;;;;;;1.10;0.70;;;21.00;98.70;;;;;;5022629;28;20454;-72
2023/11/03 07:20:38;;;;;;;1.00;0.60;;;21.00;98.70;;;;;;5023455;28;20290;-72
2023/11/03 07:23:07;;;;;;;1.38;0.80;;;21.00;98.70;;;;;;5019718;28;20202;-73
2023/11/03 07:25:33;;;;;;;1.10;0.77;;;20.90;98.60;;;;;;5023484;28;20590;-72
2023/11/03 07:28:00;;;;;;;0.88;0.65;;;20.90;98.60;;;;;;5033677;28;20779;-74
2023/11/03 07:30:28;;;;;;;1.17;0.82;;;20.90;98.80;;;;;;5029692;28;20302;-76
2023/11/03 07:32:57;;;;;;;1.13;0.70;;;20.90;98.80;;;;;;5024361;28;20192;-73
2023/11/03 07:35:24;;;;;;;1.00;0.70;;;20.90;99.00;;;;;;5025054;28;20206;-78
2023/11/03 07:37:50;;;;;;;1.25;0.82;;;21.00;99.00;;;;;;5019325;28;21968;-74
2023/11/03 07:40:17;;;;;;;1.10;0.75;;;21.00;99.00;;;;;;5024101;28;20290;-71
2023/11/03 07:42:44;;;;;;;1.30;0.80;;;21.00;99.10;;;;;;5025388;28;20209;-74
2023/11/03 07:45:11;;;;;;;2.20;0.70;;;21.00;99.10;;;;;;5022114;28;20265;-69
2023/11/03 07:47:38;;;;;;;1.00;0.70;;;21.00;99.10;;;;;;5022630;28;20195;-69
2023/11/03 07:50:09;;;;;;;1.00;0.80;;;21.00;99.00;;;;;;5022072;28;20711;-69
2023/11/03 07:52:35;;;;;;;1.30;0.80;;;21.00;99.10;;;;;;5023591;28;20552;-69
2023/11/03 07:55:02;;;;;;;2.53;0.67;;;21.10;99.10;;;;;;5022530;28;20457;-68
2023/11/03 07:57:29;;;;;;;1.37;0.70;;;21.10;99.10;;;;;;5024222;28;20724;-70
2023/11/03 07:59:57;;;;;;;2.03;0.90;;;21.10;99.20;;;;;;5020533;28;20788;-68
2023/11/03 08:02:24;;;;;;;0.90;0.70;;;21.10;99.30;;;;;;5019873;28;20302;-68
2023/11/03 08:04:51;;;;;;;0.90;0.63;;;21.10;99.30;;;;;;5029879;28;20548;-69
2023/11/03 08:07:19;;;;;;;2.40;0.90;;;21.20;99.30;;;;;;5024994;28;20811;-71
2023/11/03 08:09:46;;;;;;;1.93;0.90;;;21.20;99.20;;;;;;5027195;28;20458;-73
2023/11/03 08:12:13;;;;;;;2.63;0.70;;;21.30;99.20;;;;;;5020938;28;20465;-68
2023/11/03 08:14:40;;;;;;;1.33;0.70;;;21.20;99.10;;;;;;5024504;28;20446;-71
2023/11/03 08:17:07;;;;;;;1.53;0.80;;;21.20;99.00;;;;;;5023494;28;21737;-73
2023/11/03 08:19:34;;;;;;;2.17;0.90;;;21.20;99.00;;;;;;5024537;28;20481;-68
2023/11/03 08:22:01;;;;;;;1.83;0.80;;;21.30;99.00;;;;;;5025378;28;20524;-70
2023/11/03 08:24:30;;;;;;;1.00;0.70;;;21.20;98.80;;;;;;5024801;28;20463;-69
2023/11/03 08:26:57;;;;;;;1.10;0.60;;;21.30;98.80;;;;;;5024622;28;20465;-70
2023/11/03 08:29:24;;;;;;;1.17;0.70;;;21.30;98.90;;;;;;5024794;28;20473;-71
2023/11/03 08:31:51;;;;;;;1.30;0.70;;;21.30;98.80;;;;;;5023739;28;20488;-69
2023/11/03 08:34:17;;;;;;;1.20;0.90;;;21.30;99.00;;;;;;5024343;28;20465;-70
2023/11/03 08:36:46;;;;;;;3.87;0.70;;;21.30;98.70;;;;;;5026965;28;20448;-70
2023/11/03 08:39:13;;;;;;;1.80;0.80;;;21.30;98.60;;;;;;5024200;28;20810;-69
2023/11/03 08:41:41;;;;;;;1.30;0.80;;;21.30;98.50;;;;;;5025333;28;20474;-73
2023/11/03 08:44:09;;;;;;;1.33;0.80;;;21.40;98.60;;;;;;5026122;28;20823;-69
2023/11/03 08:46:35;;;;;;;1.10;0.70;;;21.30;98.50;;;;;;5027388;28;20489;-68
2023/11/03 08:49:04;;;;;;;1.77;1.00;;;21.30;98.50;;;;;;5028495;28;20472;-68
2023/11/03 08:51:31;;;;;;;1.00;0.70;;;21.40;98.40;;;;;;5029581;28;20566;-72
2023/11/03 08:53:58;;;;;;;1.60;0.93;;;21.40;98.40;;;;;;5026521;28;20488;-69
2023/11/03 08:56:25;;;;;;;1.33;0.97;;;21.40;98.40;;;;;;5027547;28;20462;-70
2023/11/03 08:58:54;;;;;;;1.77;0.90;;;21.40;98.40;;;;;;5024621;28;20455;-69
2023/11/03 09:01:21;;;;;;;1.83;0.83;;;21.40;98.30;;;;;;5025149;28;20477;-69
2023/11/03 09:03:48;;;;;;;1.67;0.87;;;21.40;98.40;;;;;;5026454;28;20605;-73
2023/11/03 09:06:15;;;;;;;0.90;0.70;;;21.40;98.40;;;;;;5022891;28;20480;-72
2023/11/03 09:08:41;;;;;;;2.57;0.93;;;21.40;98.30;;;;;;5026798;28;20463;-72
2023/11/03 09:11:10;;;;;;;2.27;0.90;;;21.40;98.40;;;;;;5022312;28;21122;-72
2023/11/03 09:13:51;;;;;;;1.73;0.90;;;21.40;98.20;;;;;;5028453;28;20841;-70
2023/11/03 09:16:20;;;;;;;1.00;0.63;;;21.40;98.30;;;;;;5029339;28;20791;-73
2023/11/03 09:18:47;;;;;;;1.27;0.77;;;21.40;98.30;;;;;;5024073;28;20544;-71
2023/11/03 09:21:14;;;;;;;0.90;0.60;;;21.50;98.60;;;;;;5023956;28;20462;-70
2023/11/03 09:23:41;;;;;;;1.17;0.80;;;21.50;98.30;;;;;;5027477;28;20456;-69
2023/11/03 09:26:09;;;;;;;1.10;0.80;;;21.50;98.20;;;;;;5029221;28;20547;-68
2023/11/03 09:28:36;;;;;;;1.10;0.70;;;21.50;98.20;;;;;;5025215;28;20450;-73
2023/11/03 09:31:03;;;;;;;1.30;0.77;;;21.50;98.20;;;;;;5029587;28;20926;-66
2023/11/03 09:33:31;;;;;;;2.13;0.80;;;21.50;98.10;;;;;;5032417;28;20938;-69
2023/11/03 09:35:58;;;;;;;1.77;1.00;;;21.50;98.10;;;;;;5033850;28;20449;-68
2023/11/03 09:38:25;;;;;;;1.00;0.80;;;21.50;98.10;;;;;;5029299;28;20456;-71
2023/11/03 09:40:51;;;;;;;2.40;0.90;;;21.50;98.10;;;;;;5031629;28;20859;-71
2023/11/03 09:43:19;;;;;;;1.40;0.77;;;21.50;98.10;;;;;;5027476;28;20815;-65
2023/11/03 09:45:46;;;;;;;1.30;0.77;;;21.50;98.00;;;;;;5027860;28;20519;-70
2023/11/03 09:48:13;;;;;;;2.10;0.93;;;21.50;98.00;;;;;;5028068;28;20532;-67
2023/11/03 09:50:42;;;;;;;2.53;1.20;;;21.50;98.00;;;;;;5024371;28;20474;-71
2023/11/03 09:53:11;;;;;;;1.27;0.80;;;21.50;98.10;;;;;;5024045;28;20476;-65
2023/11/03 09:55:41;;;;;;;2.00;0.90;;;21.50;98.00;;;;;;5028408;28;20455;-72
2023/11/03 09:58:08;;;;;;;1.97;0.83;;;21.50;98.00;;;;;;5023747;28;20457;-68
2023/11/03 10:00:35;;;;;;;1.07;0.70;;;21.50;98.00;;;;;;5034427;28;20476;-67
2023/11/03 10:03:04;;;;;;;1.13;0.70;;;21.50;97.90;;;;;;5036321;28;20470;-69
2023/11/03 10:05:33;;;;;;;1.30;0.97;;;21.50;98.00;;;;;;5031133;28;21155;-67
2023/11/03 10:08:03;;;;;;;2.07;0.90;;;21.50;97.80;;;;;;5023816;28;20541;-69
2023/11/03 10:10:29;;;;;;;1.57;1.00;;;21.50;97.90;;;;;;5031848;28;20801;-71
2023/11/03 10:12:57;;;;;;;1.00;0.70;;;21.50;97.90;;;;;;5036223;28;20437;-68
2023/11/03 10:15:24;;;;;;;2.13;1.00;;;21.60;97.90;;;;;;5033416;28;20967;-71
2023/11/03 10:17:53;;;;;;;1.10;0.70;;;21.60;97.90;;;;;;5027102;28;20488;-69
2023/11/03 10:20:21;;;;;;;1.10;0.70;;;21.50;97.80;;;;;;5034210;28;20465;-67
2023/11/03 10:22:48;;;;;;;1.13;0.80;;;21.60;97.40;;;;;;5031028;28;20546;-71
2023/11/03 10:25:18;;;;;;;2.10;1.00;;;21.60;97.10;;;;;;5029256;28;20474;-71
2023/11/03 10:27:48;;;;;;;1.30;0.80;;;21.50;97.10;;;;;;5035547;28;20856;-70
2023/11/03 10:30:16;;;;;;;2.83;0.90;;;21.60;97.20;;;;;;5035662;28;20449;-66
2023/11/03 10:32:44;;;;;;;2.97;1.20;;;21.60;97.00;;;;;;5032068;28;20485;-69
2023/11/03 10:35:12;;;;;;;1.73;0.97;;;21.60;96.90;;;;;;5031012;28;20540;-66
2023/11/03 10:37:41;;;;;;;6.53;1.40;;;21.60;96.80;;;;;;5027432;28;20494;-65
2023/11/03 10:40:12;;;;;;;1.30;1.00;;;21.60;97.10;;;;;;5025732;28;20549;-67
2023/11/03 10:42:48;;;;;;;1.53;1.00;;;21.60;96.50;;;;;;5032187;28;20450;-71
2023/11/03 10:45:16;;;;;;;1.60;0.80;;;21.60;96.60;;;;;;5031611;28;20477;-69
2023/11/03 10:47:56;;;;;;;1.50;1.00;;;21.60;96.70;;;;;;5026110;28;20458;-70
2023/11/03 10:50:30;;;;;;;1.40;0.90;;;21.60;96.80;;;;;;5025383;28;21087;-70
2023/11/03 10:53:03;;;;;;;1.10;0.80;;;21.60;96.90;;;;;;5028902;28;20470;-68
2023/11/03 10:55:36;;;;;;;1.30;1.10;;;21.60;97.00;;;;;;5028360;28;20481;-68
2023/11/03 10:58:04;;;;;;;1.40;0.90;;;21.60;97.10;;;;;;5028491;28;20463;-68
2023/11/03 11:00:35;;;;;;;2.10;1.30;;;21.70;97.30;;;;;;5027029;28;20468;-69
2023/11/03 11:03:09;;;;;;;1.67;0.80;;;21.70;97.30;;;;;;5030476;28;20465;-74
2023/11/03 11:05:41;;;;;;;1.37;0.80;;;21.70;97.40;;;;;;5027851;28;20544;-69
2023/11/03 11:08:09;;;;;;;2.70;1.10;;;21.70;97.40;;;;;;5026508;28;20490;-75
2023/11/03 11:10:37;;;;;;;1.43;0.80;;;21.70;97.50;;;;;;5027111;28;20465;-73
2023/11/03 11:13:13;;;;;;;1.17;0.87;;;21.70;97.60;;;;;;5025732;28;20486;-69
2023/11/03 11:15:43;;;;;;;2.10;1.10;;;21.80;97.70;;;;;;5024198;28;20538;-74
2023/11/03 11:18:15;;;;;;;1.20;0.87;;;21.80;97.70;;;;;;5027232;28;20474;-72
2023/11/03 11:20:51;;;;;;;1.50;0.80;;;21.80;97.70;;;;;;5027738;28;20445;-71
2023/11/03 11:23:19;;;;;;;1.87;0.90;;;21.80;97.70;;;;;;5028171;28;20460;-75
2023/11/03 11:25:50;;;;;;;1.50;0.80;;;21.90;97.80;;;;;;5028328;28;21079;-69
2023/11/03 11:28:36;;;;;;;1.37;0.90;;;21.90;97.80;;;;;;5029532;28;20993;-75
2023/11/03 11:31:36;;;;;;;1.83;0.90;;;21.90;97.70;;;;;;5027673;28;20867;-71
2023/11/03 11:34:04;;;;;;;1.33;0.83;;;21.90;97.60;;;;;;5023126;28;20458;-73
2023/11/03 11:36:33;;;;;;;2.33;0.90;;;21.90;97.40;;;;;;5026780;28;20471;-70
2023/11/03 11:39:02;;;;;;;2.23;1.10;;;21.90;97.40;;;;;;5027247;28;20949;-70
2023/11/03 11:41:32;;;;;;;1.40;1.10;;;22.00;97.50;;;;;;5030392;28;20466;-70
2023/11/03 11:44:02;;;;;;;2.47;0.70;;;22.00;97.50;;;;;;5029453;28;20469;-72
2023/11/03 11:46:31;;;;;;;1.10;0.80;;;22.00;97.50;;;;;;5029317;28;20465;-70
2023/11/03 11:49:01;;;;;;;1.33;0.80;;;22.00;97.50;;;;;;5031847;28;20680;-70
2023/11/03 11:51:28;;;;;;;1.77;1.00;;;22.10;97.60;;;;;;5027119;28;20473;-71
2023/11/03 11:54:00;;;;;;;2.70;1.00;;;22.00;97.50;;;;;;5029955;28;20810;-70
2023/11/03 11:56:27;;;;;;;3.00;0.87;;;22.10;97.90;;;;;;5027002;28;20466;-75
2023/11/03 11:58:55;;;;;;;1.20;0.70;;;22.10;97.60;;;;;;5030518;28;20453;-72
2023/11/03 12:01:23;;;;;;;1.00;0.70;;;22.10;97.60;;;;;;5026250;28;20453;-70
2023/11/03 12:03:52;;;;;;;1.37;1.07;;;22.10;97.60;;;;;;5026999;28;20524;-69
2023/11/03 12:06:19;;;;;;;1.37;0.83;;;22.20;97.70;;;;;;5034594;28;21026;-71
2023/11/03 12:08:45;;;;;;;1.40;0.83;;;22.20;97.70;;;;;;5030750;28;20930;-70
2023/11/03 12:11:14;;;;;;;1.40;0.80;;;22.20;97.70;;;;;;5029442;28;20891;-69
2023/11/03 12:13:42;;;;;;;1.30;0.80;;;22.30;97.70;;;;;;5033007;28;20461;-69
2023/11/03 12:16:09;;;;;;;1.27;1.00;;;22.20;97.60;;;;;;5033957;28;20445;-69
2023/11/03 12:18:39;;;;;;;1.17;0.80;;;22.20;97.60;;;;;;5033083;28;20458;-68
2023/11/03 12:21:07;;;;;;;3.20;1.20;;;22.20;97.60;;;;;;5034281;28;20465;-70
2023/11/03 12:23:34;;;;;;;1.40;1.20;;;22.30;97.70;;;;;;5030862;28;20545;-67
2023/11/03 12:26:02;;;;;;;1.30;1.00;;;22.30;97.70;;;;;;5032508;28;20459;-72
2023/11/03 12:28:31;;;;;;;1.57;1.00;;;22.30;97.70;;;;;;5024399;28;20869;-69
2023/11/03 12:31:04;;;;;;;1.80;0.80;;;22.30;97.70;;;;;;5023507;28;20464;-67
2023/11/03 12:33:31;;;;;;;2.07;1.23;;;22.30;97.60;;;;;;5024727;28;20470;-68
2023/11/03 12:36:00;;;;;;;1.97;0.90;;;22.30;97.70;;;;;;5033151;28;20454;-67
2023/11/03 12:38:27;;;;;;;1.60;1.00;;;22.30;97.60;;;;;;5026157;28;20826;-67
2023/11/03 12:41:13;;;;;;;1.43;0.90;;;22.30;97.70;;;;;;5031326;28;20478;-67
2023/11/03 12:43:41;;;;;;;1.37;1.03;;;22.40;97.70;;;;;;5031145;28;20458;-70
2023/11/03 12:46:09;;;;;;;1.07;0.70;;;22.40;97.70;;;;;;5028766;28;20827;-74
2023/11/03 12:48:36;;;;;;;8.13;0.80;;;22.40;97.70;;;;;;5028238;28;20955;-70
2023/11/03 12:51:06;;;;;;;1.40;0.70;;;22.50;97.80;;;;;;5029894;28;20458;-70